Time,TemperatureF,DewpointF,PressureIn,WindDirection,WindDirectionDegrees,WindSpeedMPH,WindSpeedGustMPH,Humidity,HourlyPrecipIn,Conditions,Clouds,dailyrainin,SoftwareType,DateUTC
2013-03-20 00:05:00,25.6,24.4,29.63,North,-999,0.0,0.0,95,0.00,,,-99.99,WeatherLink 5.7,2013-03-20 04:05:00,
2013-03-20 00:10:00,25.1,23.6,29.63,North,-999,0.0,0.0,94,0.00,,,-99.99,WeatherLink 5.7,2013-03-20 04:10:00,
2013-03-20 00:25:00,24.7,23.2,29.64,North,-999,0.0,0.0,94,0.00,,,-99.99,WeatherLink 5.7,2013-03-20 04:25:00,
2013-03-20 00:35:00,24.8,23.3,29.64,North,-999,0.0,0.0,94,0.00,,,-99.99,WeatherLink 5.7,2013-03-20 04:35:00,
2013-03-20 00:45:00,25.1,23.6,29.64,North,-999,0.0,0.0,94,0.00,,,-99.99,WeatherLink 5.7,2013-03-20 04:45:00,
2013-03-20 00:55:00,25.4,23.9,29.65,North,-999,0.0,0.0,94,0.00,,,-99.99,WeatherLink 5.7,2013-03-20 04:55:00,
2013-03-20 01:05:00,25.6,24.1,29.65,North,-999,0.0,0.0,94,0.00,,,-99.99,WeatherLink 5.7,2013-03-20 05:05:00,
2013-03-20 01:15:00,25.6,24.1,29.65,North,-999,0.0,0.0,94,0.00,,,-99.99,WeatherLink 5.7,2013-03-20 05:15:00,
2013-03-20 01:20:00,25.6,24.1,29.64,North,-999,0.0,0.0,94,0.00,,,-99.99,WeatherLink 5.7,2013-03-20 05:20:00,
2013-03-20 01:30:00,25.6,24.1,29.64,North,-999,0.0,0.0,94,0.00,,,-99.99,WeatherLink 5.7,2013-03-20 05:30:00,
2013-03-20 01:40:00,25.6,24.1,29.64,North,-999,0.0,0.0,94,0.00,,,-99.99,WeatherLink 5.7,2013-03-20 05:40:00,
2013-03-20 01:45:00,25.6,24.1,29.64,North,-999,0.0,0.0,94,0.00,,,-99.99,WeatherLink 5.7,2013-03-20 05:45:00,
2013-03-20 01:50:00,25.4,23.7,29.64,North,-999,0.0,0.0,93,0.00,,,-99.99,WeatherLink 5.7,2013-03-20 05:50:00,
2013-03-20 02:00:00,25.4,23.7,29.64,North,-999,0.0,0.0,93,0.00,,,-99.99,WeatherLink 5.7,2013-03-20 06:00:00,
2013-03-20 02:10:00,25.3,23.6,29.65,North,-999,0.0,0.0,93,0.00,,,-99.99,WeatherLink 5.7,2013-03-20 06:10:00,
2013-03-20 02:20:00,25.1,23.4,29.65,North,-999,0.0,0.0,93,0.00,,,-99.99,WeatherLink 5.7,2013-03-20 06:20:00,
2013-03-20 02:25:00,25.1,23.4,29.65,North,-999,0.0,0.0,93,0.00,,,-99.99,WeatherLink 5.7,2013-03-20 06:25:00,
2013-03-20 02:35:00,25.0,23.3,29.65,North,-999,0.0,0.0,93,0.00,,,-99.99,WeatherLink 5.7,2013-03-20 06:35:00,
2013-03-20 02:45:00,24.8,23.1,29.65,North,-999,0.0,0.0,93,0.00,,,-99.99,WeatherLink 5.7,2013-03-20 06:45:00,
2013-03-20 02:50:00,24.7,22.7,29.64,North,-999,0.0,0.0,92,0.00,,,-99.99,WeatherLink 5.7,2013-03-20 06:50:00,
2013-03-20 03:00:00,24.2,22.2,29.64,North,-999,0.0,0.0,92,0.00,,,-99.99,WeatherLink 5.7,2013-03-20 07:00:00,
2013-03-20 03:05:00,24.1,22.1,29.64,North,-999,0.0,0.0,92,0.00,,,-99.99,WeatherLink 5.7,2013-03-20 07:05:00,
2013-03-20 03:15:00,23.9,21.9,29.64,North,-999,0.0,0.0,92,0.00,,,-99.99,WeatherLink 5.7,2013-03-20 07:15:00,
2013-03-20 03:25:00,23.5,21.5,29.65,North,-999,0.0,0.0,92,0.00,,,-99.99,WeatherLink 5.7,2013-03-20 07:25:00,
2013-03-20 03:35:00,23.3,21.3,29.65,North,-999,0.0,0.0,92,0.00,,,-99.99,WeatherLink 5.7,2013-03-20 07:35:00,
2013-03-20 03:45:00,23.5,21.8,29.65,North,-999,0.0,0.0,93,0.00,,,-99.99,WeatherLink 5.7,2013-03-20 07:45:00,
2013-03-20 03:55:00,23.8,22.1,29.65,North,-999,0.0,0.0,93,0.00,,,-99.99,WeatherLink 5.7,2013-03-20 07:55:00,
2013-03-20 04:00:00,23.9,22.2,29.65,North,-999,0.0,0.0,93,0.00,,,-99.99,WeatherLink 5.7,2013-03-20 08:00:00,
2013-03-20 04:10:00,24.4,22.9,29.64,North,-999,0.0,0.0,94,0.00,,,-99.99,WeatherLink 5.7,2013-03-20 08:10:00,
2013-03-20 04:15:00,24.5,23.0,29.64,North,-999,0.0,0.0,94,0.00,,,-99.99,WeatherLink 5.7,2013-03-20 08:15:00,
2013-03-20 04:25:00,24.7,23.2,29.64,North,-999,0.0,0.0,94,0.00,,,-99.99,WeatherLink 5.7,2013-03-20 08:25:00,
2013-03-20 04:35:00,24.8,23.3,29.64,North,-999,0.0,0.0,94,0.00,,,-99.99,WeatherLink 5.7,2013-03-20 08:35:00,
2013-03-20 04:40:00,24.8,23.3,29.64,North,-999,0.0,0.0,94,0.00,,,-99.99,WeatherLink 5.7,2013-03-20 08:40:00,
2013-03-20 04:50:00,25.0,23.5,29.64,North,-999,0.0,0.0,94,0.00,,,-99.99,WeatherLink 5.7,2013-03-20 08:50:00,
2013-03-20 04:55:00,25.0,23.5,29.64,North,-999,0.0,0.0,94,0.00,,,-99.99,WeatherLink 5.7,2013-03-20 08:55:00,
2013-03-20 05:05:00,25.3,23.8,29.64,North,-999,0.0,0.0,94,0.00,,,-99.99,WeatherLink 5.7,2013-03-20 09:05:00,
2013-03-20 05:15:00,25.3,23.6,29.64,North,-999,0.0,0.0,93,0.00,,,-99.99,WeatherLink 5.7,2013-03-20 09:15:00,
2013-03-20 05:25:00,25.4,23.7,29.64,North,-999,0.0,0.0,93,0.00,,,-99.99,WeatherLink 5.7,2013-03-20 09:25:00,
2013-03-20 05:35:00,25.4,23.4,29.65,North,-999,0.0,0.0,92,0.00,,,-99.99,WeatherLink 5.7,2013-03-20 09:35:00,
2013-03-20 05:40:00,25.6,23.6,29.65,North,-999,0.0,0.0,92,0.00,,,-99.99,WeatherLink 5.7,2013-03-20 09:40:00,
2013-03-20 05:50:00,25.6,23.6,29.65,North,-999,0.0,0.0,92,0.00,,,-99.99,WeatherLink 5.7,2013-03-20 09:50:00,
2013-03-20 05:55:00,25.6,23.6,29.65,North,-999,0.0,0.0,92,0.00,,,-99.99,WeatherLink 5.7,2013-03-20 09:55:00,
2013-03-20 06:05:00,25.6,23.6,29.66,North,-999,0.0,0.0,92,0.00,,,-99.99,WeatherLink 5.7,2013-03-20 10:05:00,
2013-03-20 06:10:00,25.6,23.6,29.66,North,-999,0.0,0.0,92,0.00,,,-99.99,WeatherLink 5.7,2013-03-20 10:10:00,
2013-03-20 06:20:00,25.4,23.4,29.66,North,-999,0.0,0.0,92,0.00,,,-99.99,WeatherLink 5.7,2013-03-20 10:20:00,
2013-03-20 06:30:00,25.1,22.8,29.66,North,-999,0.0,0.0,91,0.00,,,-99.99,WeatherLink 5.7,2013-03-20 10:30:00,
2013-03-20 06:40:00,24.7,22.4,29.66,North,-999,0.0,0.0,91,0.00,,,-99.99,WeatherLink 5.7,2013-03-20 10:40:00,
2013-03-20 06:45:00,24.5,22.2,29.66,North,-999,0.0,0.0,91,0.00,,,-99.99,WeatherLink 5.7,2013-03-20 10:45:00,
2013-03-20 06:55:00,24.2,21.7,29.66,North,-999,0.0,0.0,90,0.00,,,-99.99,WeatherLink 5.7,2013-03-20 10:55:00,
2013-03-20 07:05:00,23.9,21.4,29.66,North,-999,0.0,0.0,90,0.00,,,-99.99,WeatherLink 5.7,2013-03-20 11:05:00,
2013-03-20 07:15:00,23.9,21.7,29.66,North,-999,0.0,0.0,91,0.00,,,-99.99,WeatherLink 5.7,2013-03-20 11:15:00,
2013-03-20 07:25:00,24.1,21.6,29.67,North,-999,0.0,0.0,90,0.00,,,-99.99,WeatherLink 5.7,2013-03-20 11:25:00,
2013-03-20 07:30:00,24.1,21.6,29.67,North,-999,0.0,0.0,90,0.00,,,-99.99,WeatherLink 5.7,2013-03-20 11:30:00,
2013-03-20 07:40:00,24.2,21.7,29.67,North,-999,0.0,0.0,90,0.00,,,-99.99,WeatherLink 5.7,2013-03-20 11:40:00,
2013-03-20 07:45:00,24.1,21.6,29.67,North,-999,0.0,0.0,90,0.00,,,-99.99,WeatherLink 5.7,2013-03-20 11:45:00,
2013-03-20 07:50:00,24.1,21.6,29.67,North,-999,0.0,0.0,90,0.00,,,-99.99,WeatherLink 5.7,2013-03-20 11:50:00,
2013-03-20 08:00:00,24.4,21.6,29.67,North,-999,0.0,0.0,89,0.00,,,-99.99,WeatherLink 5.7,2013-03-20 12:00:00,
2013-03-20 08:10:00,25.1,22.3,29.67,North,-999,0.0,0.0,89,0.00,,,-99.99,WeatherLink 5.7,2013-03-20 12:10:00,
2013-03-20 08:15:00,25.6,22.8,29.67,North,-999,0.0,0.0,89,0.00,,,-99.99,WeatherLink 5.7,2013-03-20 12:15:00,
2013-03-20 08:25:00,26.1,23.3,29.67,North,-999,0.0,0.0,89,0.00,,,-99.99,WeatherLink 5.7,2013-03-20 12:25:00,
2013-03-20 08:35:00,27.0,23.9,29.67,North,-999,0.0,0.0,88,0.00,,,-99.99,WeatherLink 5.7,2013-03-20 12:35:00,
2013-03-20 08:45:00,28.2,24.6,29.67,North,-999,0.0,0.0,86,0.00,,,-99.99,WeatherLink 5.7,2013-03-20 12:45:00,
2013-03-20 08:50:00,29.4,25.2,29.66,North,-999,0.0,0.0,84,0.00,,,-99.99,WeatherLink 5.7,2013-03-20 12:50:00,
2013-03-20 09:00:00,29.8,25.3,29.66,North,-999,0.0,0.0,83,0.00,,,-99.99,WeatherLink 5.7,2013-03-20 13:00:00,
2013-03-20 09:10:00,31.0,26.1,29.66,North,-999,0.0,0.0,82,0.00,,,-99.99,WeatherLink 5.7,2013-03-20 13:10:00,
2013-03-20 09:20:00,32.1,26.9,29.66,North,-999,0.0,0.0,81,0.00,,,-99.99,WeatherLink 5.7,2013-03-20 13:20:00,
2013-03-20 09:30:00,33.2,27.4,29.66,North,-999,0.0,0.0,79,0.00,,,-99.99,WeatherLink 5.7,2013-03-20 13:30:00,
2013-03-20 09:40:00,34.0,27.5,29.66,North,-999,0.0,0.0,77,0.00,,,-99.99,WeatherLink 5.7,2013-03-20 13:40:00,
2013-03-20 09:45:00,34.3,27.2,29.66,North,-999,0.0,0.0,75,0.00,,,-99.99,WeatherLink 5.7,2013-03-20 13:45:00,
2013-03-20 09:55:00,34.3,27.2,29.66,North,-999,0.0,0.0,75,0.00,,,-99.99,WeatherLink 5.7,2013-03-20 13:55:00,
2013-03-20 10:00:00,34.4,27.0,29.66,North,-999,0.0,0.0,74,0.00,,,-99.99,WeatherLink 5.7,2013-03-20 14:00:00,
2013-03-20 10:10:00,35.5,27.0,29.66,North,-999,0.0,0.0,71,0.00,,,-99.99,WeatherLink 5.7,2013-03-20 14:10:00,
2013-03-20 10:15:00,35.6,27.1,29.66,North,-999,0.0,0.0,71,0.00,,,-99.99,WeatherLink 5.7,2013-03-20 14:15:00,
2013-03-20 10:25:00,36.5,26.6,29.66,North,-999,0.0,0.0,67,0.00,,,-99.99,WeatherLink 5.7,2013-03-20 14:25:00,
2013-03-20 10:35:00,37.5,27.5,29.66,North,-999,0.0,0.0,67,0.00,,,-99.99,WeatherLink 5.7,2013-03-20 14:35:00,
2013-03-20 10:45:00,36.2,25.6,29.66,West,270,5.0,10.0,65,0.00,,,-99.99,WeatherLink 5.7,2013-03-20 14:45:00,
2013-03-20 10:50:00,35.8,25.5,29.66,West,270,3.0,8.0,66,0.00,,,-99.99,WeatherLink 5.7,2013-03-20 14:50:00,
2013-03-20 11:00:00,36.0,25.7,29.66,WSW,247,4.0,8.0,66,0.00,,,-99.99,WeatherLink 5.7,2013-03-20 15:00:00,
2013-03-20 11:15:00,37.2,25.8,29.66,West,270,3.0,10.0,63,0.00,,,-99.99,WeatherLink 5.7,2013-03-20 15:15:00,
2013-03-20 11:25:00,37.3,25.8,29.66,WSW,247,4.0,7.0,63,0.00,,,-99.99,WeatherLink 5.7,2013-03-20 15:25:00,
2013-03-20 11:35:00,38.6,25.1,29.67,West,270,3.0,10.0,58,0.00,,,-99.99,WeatherLink 5.7,2013-03-20 15:35:00,
2013-03-20 11:45:00,37.0,25.6,29.67,West,270,4.0,12.0,63,0.00,,,-99.99,WeatherLink 5.7,2013-03-20 15:45:00,
2013-03-20 12:00:00,36.0,25.7,29.67,WNW,292,2.0,7.0,66,0.00,,,-99.99,WeatherLink 5.7,2013-03-20 16:00:00,
2013-03-20 12:05:00,36.3,26.4,29.67,West,270,2.0,10.0,67,0.00,,,-99.99,WeatherLink 5.7,2013-03-20 16:05:00,
2013-03-20 12:15:00,36.8,25.0,29.67,WSW,247,5.0,10.0,62,0.00,,,-99.99,WeatherLink 5.7,2013-03-20 16:15:00,
2013-03-20 12:25:00,36.0,24.6,29.67,West,270,5.0,12.0,63,0.00,,,-99.99,WeatherLink 5.7,2013-03-20 16:25:00,
2013-03-20 12:35:00,37.3,24.7,29.67,WSW,247,6.0,12.0,60,0.00,,,-99.99,WeatherLink 5.7,2013-03-20 16:35:00,
2013-03-20 12:45:00,38.0,25.3,29.67,WSW,247,5.0,11.0,60,0.00,,,-99.99,WeatherLink 5.7,2013-03-20 16:45:00,
2013-03-20 12:55:00,37.2,25.4,29.67,WSW,247,4.0,8.0,62,0.00,,,-99.99,WeatherLink 5.7,2013-03-20 16:55:00,
2013-03-20 13:05:00,37.9,25.2,29.67,West,270,4.0,7.0,60,0.00,,,-99.99,WeatherLink 5.7,2013-03-20 17:05:00,
2013-03-20 13:15:00,38.6,24.7,29.67,WSW,247,6.0,12.0,57,0.00,,,-99.99,WeatherLink 5.7,2013-03-20 17:15:00,
2013-03-20 13:20:00,39.2,26.1,29.67,WSW,247,3.0,10.0,59,0.00,,,-99.99,WeatherLink 5.7,2013-03-20 17:20:00,
2013-03-20 13:25:00,39.5,25.5,29.67,West,270,4.0,13.0,57,0.00,,,-99.99,WeatherLink 5.7,2013-03-20 17:25:00,
2013-03-20 13:35:00,37.8,24.3,29.67,West,270,6.0,12.0,58,0.00,,,-99.99,WeatherLink 5.7,2013-03-20 17:35:00,
2013-03-20 13:45:00,37.0,24.4,29.67,WSW,247,5.0,8.0,60,0.00,,,-99.99,WeatherLink 5.7,2013-03-20 17:45:00,
2013-03-20 13:55:00,36.8,23.4,29.67,WSW,247,5.0,10.0,58,0.00,,,-99.99,WeatherLink 5.7,2013-03-20 17:55:00,
2013-03-20 14:05:00,36.5,23.9,29.66,West,270,3.0,10.0,60,0.00,,,-99.99,WeatherLink 5.7,2013-03-20 18:05:00,
2013-03-20 14:10:00,37.0,23.6,29.66,WSW,247,3.0,8.0,58,0.00,,,-99.99,WeatherLink 5.7,2013-03-20 18:10:00,
2013-03-20 14:20:00,37.8,24.3,29.66,West,270,3.0,7.0,58,0.00,,,-99.99,WeatherLink 5.7,2013-03-20 18:20:00,
2013-03-20 14:30:00,37.6,22.4,29.66,WSW,247,5.0,14.0,54,0.00,,,-99.99,WeatherLink 5.7,2013-03-20 18:30:00,
2013-03-20 14:40:00,36.8,23.8,29.66,West,270,3.0,7.0,59,0.00,,,-99.99,WeatherLink 5.7,2013-03-20 18:40:00,
2013-03-20 14:50:00,36.2,22.8,29.66,WSW,247,3.0,7.0,58,0.00,,,-99.99,WeatherLink 5.7,2013-03-20 18:50:00,
2013-03-20 15:00:00,36.9,23.5,29.66,WSW,247,4.0,11.0,58,0.00,,,-99.99,WeatherLink 5.7,2013-03-20 19:00:00,
2013-03-20 15:10:00,37.9,23.6,29.66,West,270,3.0,8.0,56,0.00,,,-99.99,WeatherLink 5.7,2013-03-20 19:10:00,
2013-03-20 15:15:00,38.6,22.9,29.66,West,270,4.0,12.0,53,0.00,,,-99.99,WeatherLink 5.7,2013-03-20 19:15:00,
2013-03-20 15:25:00,38.5,23.3,29.65,WSW,247,5.0,9.0,54,0.00,,,-99.99,WeatherLink 5.7,2013-03-20 19:25:00,
2013-03-20 15:30:00,38.2,23.4,29.65,West,270,4.0,10.0,55,0.00,,,-99.99,WeatherLink 5.7,2013-03-20 19:30:00,
2013-03-20 15:40:00,37.5,22.8,29.65,WSW,247,5.0,10.0,55,0.00,,,-99.99,WeatherLink 5.7,2013-03-20 19:40:00,
2013-03-20 15:50:00,37.2,23.8,29.65,West,270,3.0,7.0,58,0.00,,,-99.99,WeatherLink 5.7,2013-03-20 19:50:00,
2013-03-20 16:00:00,37.3,23.0,29.65,WSW,247,4.0,14.0,56,0.00,,,-99.99,WeatherLink 5.7,2013-03-20 20:00:00,
2013-03-20 16:05:00,37.0,22.3,29.66,West,270,4.0,10.0,55,0.00,,,-99.99,WeatherLink 5.7,2013-03-20 20:05:00,
2013-03-20 16:15:00,37.0,22.7,29.66,West,270,4.0,8.0,56,0.00,,,-99.99,WeatherLink 5.7,2013-03-20 20:15:00,
2013-03-20 16:25:00,36.0,21.4,29.65,West,270,5.0,13.0,55,0.00,,,-99.99,WeatherLink 5.7,2013-03-20 20:25:00,
2013-03-20 16:30:00,36.0,21.8,29.65,West,270,4.0,11.0,56,0.00,,,-99.99,WeatherLink 5.7,2013-03-20 20:30:00,
2013-03-20 16:40:00,36.3,23.3,29.66,WSW,247,3.0,7.0,59,0.00,,,-99.99,WeatherLink 5.7,2013-03-20 20:40:00,
2013-03-20 16:50:00,36.3,22.5,29.66,West,270,3.0,8.0,57,0.00,,,-99.99,WeatherLink 5.7,2013-03-20 20:50:00,
2013-03-20 16:55:00,36.3,22.5,29.66,West,270,3.0,7.0,57,0.00,,,-99.99,WeatherLink 5.7,2013-03-20 20:55:00,
2013-03-20 17:05:00,36.0,22.2,29.66,West,270,3.0,7.0,57,0.00,,,-99.99,WeatherLink 5.7,2013-03-20 21:05:00,
2013-03-20 17:15:00,36.0,23.8,29.66,West,270,1.0,5.0,61,0.00,,,-99.99,WeatherLink 5.7,2013-03-20 21:15:00,
2013-03-20 17:25:00,36.2,22.4,29.66,West,270,4.0,11.0,57,0.00,,,-99.99,WeatherLink 5.7,2013-03-20 21:25:00,
2013-03-20 17:35:00,35.8,22.9,29.67,WSW,247,3.0,10.0,59,0.00,,,-99.99,WeatherLink 5.7,2013-03-20 21:35:00,
2013-03-20 17:40:00,35.6,22.3,29.67,West,270,3.0,7.0,58,0.00,,,-99.99,WeatherLink 5.7,2013-03-20 21:40:00,
2013-03-20 17:50:00,35.5,21.8,29.67,West,270,4.0,13.0,57,0.00,,,-99.99,WeatherLink 5.7,2013-03-20 21:50:00,
2013-03-20 18:00:00,35.0,20.9,29.67,West,270,4.0,7.0,56,0.00,,,-99.99,WeatherLink 5.7,2013-03-20 22:00:00,
2013-03-20 18:05:00,34.9,21.6,29.68,West,270,3.0,7.0,58,0.00,,,-99.99,WeatherLink 5.7,2013-03-20 22:05:00,
2013-03-20 18:15:00,34.6,21.3,29.68,West,270,4.0,18.0,58,0.00,,,-99.99,WeatherLink 5.7,2013-03-20 22:15:00,
2013-03-20 18:25:00,34.1,21.7,29.68,West,270,2.0,6.0,60,0.00,,,-99.99,WeatherLink 5.7,2013-03-20 22:25:00,
2013-03-20 18:30:00,34.0,20.8,29.68,West,270,4.0,11.0,58,0.00,,,-99.99,WeatherLink 5.7,2013-03-20 22:30:00,
2013-03-20 18:40:00,34.0,22.3,29.69,West,270,2.0,7.0,62,0.00,,,-99.99,WeatherLink 5.7,2013-03-20 22:40:00,
2013-03-20 18:50:00,33.5,21.5,29.69,WSW,247,2.0,6.0,61,0.00,,,-99.99,WeatherLink 5.7,2013-03-20 22:50:00,
2013-03-20 19:00:00,33.2,21.6,29.69,West,270,1.0,3.0,62,0.00,,,-99.99,WeatherLink 5.7,2013-03-20 23:00:00,
2013-03-20 19:10:00,32.8,21.6,29.70,West,270,0.0,3.0,63,0.00,,,-99.99,WeatherLink 5.7,2013-03-20 23:10:00,
2013-03-20 19:15:00,32.5,21.7,29.70,West,270,1.0,5.0,64,0.00,,,-99.99,WeatherLink 5.7,2013-03-20 23:15:00,
2013-03-20 19:25:00,32.1,21.7,29.70,West,270,0.0,3.0,65,0.00,,,-99.99,WeatherLink 5.7,2013-03-20 23:25:00,
2013-03-20 19:30:00,31.9,21.8,29.70,West,270,0.0,1.0,66,0.00,,,-99.99,WeatherLink 5.7,2013-03-20 23:30:00,
2013-03-20 19:40:00,31.5,21.8,29.71,West,270,0.0,3.0,67,0.00,,,-99.99,WeatherLink 5.7,2013-03-20 23:40:00,
2013-03-20 19:45:00,31.3,21.6,29.71,West,270,0.0,2.0,67,0.00,,,-99.99,WeatherLink 5.7,2013-03-20 23:45:00,
2013-03-20 19:50:00,31.2,21.2,29.71,NNW,337,0.0,2.0,66,0.00,,,-99.99,WeatherLink 5.7,2013-03-20 23:50:00,
2013-03-20 20:00:00,30.7,21.4,29.71,North,-999,0.0,0.0,68,0.00,,,-99.99,WeatherLink 5.7,2013-03-21 00:00:00,
2013-03-20 20:10:00,30.3,21.0,29.71,North,-999,0.0,0.0,68,0.00,,,-99.99,WeatherLink 5.7,2013-03-21 00:10:00,
2013-03-20 20:15:00,30.1,20.5,29.71,North,-999,0.0,0.0,67,0.00,,,-99.99,WeatherLink 5.7,2013-03-21 00:15:00,
2013-03-20 20:25:00,29.8,20.2,29.72,North,0,0.0,1.0,67,0.00,,,-99.99,WeatherLink 5.7,2013-03-21 00:25:00,
2013-03-20 20:35:00,29.8,19.5,29.72,North,-999,0.0,0.0,65,0.00,,,-99.99,WeatherLink 5.7,2013-03-21 00:35:00,
2013-03-20 20:40:00,29.7,19.7,29.72,North,-999,0.0,0.0,66,0.00,,,-99.99,WeatherLink 5.7,2013-03-21 00:40:00,
2013-03-20 20:50:00,29.5,19.2,29.72,North,0,0.0,1.0,65,0.00,,,-99.99,WeatherLink 5.7,2013-03-21 00:50:00,
2013-03-20 21:00:00,29.4,19.4,29.72,North,-999,0.0,0.0,66,0.00,,,-99.99,WeatherLink 5.7,2013-03-21 01:00:00,
2013-03-20 21:05:00,29.3,19.0,29.72,North,-999,0.0,0.0,65,0.00,,,-99.99,WeatherLink 5.7,2013-03-21 01:05:00,
2013-03-20 21:15:00,29.1,19.2,29.72,North,-999,0.0,0.0,66,0.00,,,-99.99,WeatherLink 5.7,2013-03-21 01:15:00,
2013-03-20 21:20:00,29.0,18.7,29.72,North,-999,0.0,0.0,65,0.00,,,-99.99,WeatherLink 5.7,2013-03-21 01:20:00,
2013-03-20 21:30:00,28.7,19.1,29.72,North,-999,0.0,0.0,67,0.00,,,-99.99,WeatherLink 5.7,2013-03-21 01:30:00,
2013-03-20 21:40:00,28.4,19.5,29.72,North,-999,0.0,0.0,69,0.00,,,-99.99,WeatherLink 5.7,2013-03-21 01:40:00,
2013-03-20 21:45:00,28.1,19.2,29.72,North,-999,0.0,0.0,69,0.00,,,-99.99,WeatherLink 5.7,2013-03-21 01:45:00,
2013-03-20 21:55:00,27.6,19.1,29.72,North,-999,0.0,0.0,70,0.00,,,-99.99,WeatherLink 5.7,2013-03-21 01:55:00,
2013-03-20 22:05:00,27.3,19.8,29.73,North,-999,0.0,0.0,73,0.00,,,-99.99,WeatherLink 5.7,2013-03-21 02:05:00,
2013-03-20 22:10:00,27.2,20.0,29.73,North,-999,0.0,0.0,74,0.00,,,-99.99,WeatherLink 5.7,2013-03-21 02:10:00,
2013-03-20 22:20:00,26.9,19.7,29.74,North,-999,0.0,0.0,74,0.00,,,-99.99,WeatherLink 5.7,2013-03-21 02:20:00,
2013-03-20 22:30:00,26.6,19.7,29.74,North,-999,0.0,0.0,75,0.00,,,-99.99,WeatherLink 5.7,2013-03-21 02:30:00,
2013-03-20 22:40:00,26.6,20.1,29.74,North,-999,0.0,0.0,76,0.00,,,-99.99,WeatherLink 5.7,2013-03-21 02:40:00,
2013-03-20 22:50:00,26.4,19.5,29.74,North,-999,0.0,0.0,75,0.00,,,-99.99,WeatherLink 5.7,2013-03-21 02:50:00,
2013-03-20 23:00:00,26.3,19.8,29.74,North,-999,0.0,0.0,76,0.00,,,-99.99,WeatherLink 5.7,2013-03-21 03:00:00,
2013-03-20 23:10:00,26.1,19.3,29.74,North,-999,0.0,0.0,75,0.00,,,-99.99,WeatherLink 5.7,2013-03-21 03:10:00,
2013-03-20 23:20:00,25.8,19.0,29.74,North,-999,0.0,0.0,75,0.00,,,-99.99,WeatherLink 5.7,2013-03-21 03:20:00,
2013-03-20 23:30:00,25.7,19.2,29.74,North,-999,0.0,0.0,76,0.00,,,-99.99,WeatherLink 5.7,2013-03-21 03:30:00,
2013-03-20 23:35:00,25.7,19.5,29.74,North,-999,0.0,0.0,77,0.00,,,-99.99,WeatherLink 5.7,2013-03-21 03:35:00,
2013-03-20 23:45:00,25.6,19.7,29.74,North,-999,0.0,0.0,78,0.00,,,-99.99,WeatherLink 5.7,2013-03-21 03:45:00,
2013-03-20 23:55:00,25.4,19.2,29.74,North,-999,0.0,0.0,77,0.00,,,-99.99,WeatherLink 5.7,2013-03-21 03:55:00,